This is the latest recevied weather packets stored in our database for station/object RU2DX-10. If no packets are shown the sender has not sent any weather packets the latest 1 day(s).
| Time | Temp. | Humidity | Pressure | Rain* | Wind** | Luminosity | Snow |
|---|---|---|---|---|---|---|---|
| 1777912469 | 24.44° C | 38% | 1008.1 hPa | - | - | - | - |
| 1777911568 | 25.56° C | 37% | 1008.1 hPa | - | - | - | - |
| 1777910666 | 26.67° C | 35% | 1008.1 hPa | - | - | - | - |
| 1777909765 | 27.22° C | 35% | 1008.2 hPa | - | - | - | - |
| 1777908865 | 26.67° C | 36% | 1008.2 hPa | - | - | - | - |
| 1777907964 | 27.22° C | 34% | 1008.4 hPa | - | - | - | - |
| 1777907063 | 23.89° C | 39% | 1008.4 hPa | - | - | - | - |
| 1777906162 | 24.44° C | 40% | 1008.5 hPa | - | - | - | - |
| 1777905259 | 24.44° C | 39% | 1008.5 hPa | - | - | - | - |
| 1777904359 | 23.89° C | 38% | 1008.6 hPa | - | - | - | - |
| 1777903458 | 24.44° C | 39% | 1008.6 hPa | - | - | - | - |
| 1777902558 | 24.44° C | 36% | 1008.7 hPa | - | - | - | - |
| 1777901657 | 26.67° C | 34% | 1008.8 hPa | - | - | - | - |
| 1777900756 | 25° C | 36% | 1008.9 hPa | - | - | - | - |
| 1777899855 | 23.89° C | 40% | 1009 hPa | - | - | - | - |
| 1777898955 | 24.44° C | 38% | 1008.9 hPa | - | - | - | - |
| 1777898057 | 25.56° C | 36% | 1009 hPa | - | - | - | - |
| 1777897153 | 27.22° C | 36% | 1009 hPa | - | - | - | - |
| 1777896252 | 25° C | 37% | 1009.3 hPa | - | - | - | - |
| 1777894450 | 25.56° C | 37% | 1009.5 hPa | - | - | - | - |
| 1777893550 | 23.89° C | 40% | 1009.6 hPa | - | - | - | - |
| 1777892649 | 24.44° C | 38% | 1009.7 hPa | - | - | - | - |
| 1777891749 | 25° C | 37% | 1009.6 hPa | - | - | - | - |
| 1777890848 | 24.44° C | 39% | 1009.7 hPa | - | - | - | - |
| 1777889947 | 25° C | 38% | 1009.9 hPa | - | - | - | - |
* Rain since midnight (hover to see other rain measurements)
** Current wind speed in m/s (hover to see current wind gust speed)